Time;durP1;ratioP1;P1;durP2;ratioP2;P2;SDS_P1;SDS_P2;PMS_P1;PMS_P2;Temp;Humidity;BMP_temperature;BMP_pressure;BME280_temperature;BME280_humidity;BME280_pressure;Samples;Min_cycle;Max_cycle;Signal;HPM_P1;HPM_P2
2021/12/26 00:01:19;;;;;;;5.07;2.80;;;;;;;-3.66;89.18;100839.81;5116033;28;20081;-82
2021/12/26 00:03:45;;;;;;;7.53;3.53;;;;;;;-3.69;88.89;100837.22;5098655;27;20070;-82
2021/12/26 00:06:15;;;;;;;6.10;3.08;;;;;;;-3.67;90.11;100838.97;5094495;28;20067;-81
2021/12/26 00:08:42;;;;;;;5.45;3.40;;;;;;;-3.62;89.13;100834.91;5094750;28;20472;-82
2021/12/26 00:11:08;;;;;;;6.85;2.72;;;;;;;-3.60;89.55;100833.28;5096320;28;20028;-82
2021/12/26 00:13:34;;;;;;;5.28;3.15;;;;;;;-3.61;88.84;100835.75;5093830;28;20089;-81
2021/12/26 00:16:00;;;;;;;7.13;3.28;;;;;;;-3.61;89.71;100836.63;5095872;28;20480;-81
2021/12/26 00:18:26;;;;;;;6.63;3.47;;;;;;;-3.66;89.15;100832.19;5102660;28;20031;-82
2021/12/26 00:20:52;;;;;;;5.32;3.10;;;;;;;-3.72;89.10;100821.81;5108122;28;20058;-82
2021/12/26 00:23:17;;;;;;;4.53;3.20;;;;;;;-3.70;89.27;100830.34;5115675;27;20429;-81
2021/12/26 00:25:44;;;;;;;6.28;3.50;;;;;;;-3.73;89.86;100827.69;5114909;28;20054;-82
2021/12/26 00:28:10;;;;;;;5.60;3.85;;;;;;;-3.78;89.69;100815.69;5113539;28;20123;-81
2021/12/26 00:30:35;;;;;;;5.75;3.55;;;;;;;-3.78;89.79;100814.81;5095051;28;20103;-82
2021/12/26 00:33:00;;;;;;;6.13;4.10;;;;;;;-3.79;89.91;100816.50;5098024;28;20028;-82
2021/12/26 00:35:26;;;;;;;7.03;3.72;;;;;;;-3.80;89.55;100807.09;5094340;28;20545;-80
2021/12/26 00:37:51;;;;;;;5.22;3.05;;;;;;;-3.75;89.11;100812.38;5098546;28;20028;-82
2021/12/26 00:40:19;;;;;;;6.03;3.80;;;;;;;-3.78;89.04;100813.13;5111886;28;20035;-81
2021/12/26 00:42:45;;;;;;;6.85;3.10;;;;;;;-3.80;88.46;100813.88;5114582;28;20618;-81
2021/12/26 00:45:10;;;;;;;7.75;3.60;;;;;;;-3.85;89.61;100805.25;5113653;28;20035;-83
2021/12/26 00:47:37;;;;;;;5.18;3.20;;;;;;;-3.84;88.93;100804.41;5106620;28;20027;-82
2021/12/26 00:50:07;;;;;;;6.90;3.53;;;;;;;-3.85;88.21;100810.34;5100309;28;20088;-82
2021/12/26 00:52:32;;;;;;;6.28;3.78;;;;;;;-3.87;88.75;100817.03;5093957;28;20020;-82
2021/12/26 00:54:58;;;;;;;5.30;3.20;;;;;;;-3.88;90.47;100800.03;5098300;28;20038;-82
2021/12/26 00:57:23;;;;;;;7.50;3.22;;;;;;;-3.90;91.02;100801.66;5097199;28;20506;-82
2021/12/26 00:59:48;;;;;;;6.78;3.63;;;;;;;-3.85;90.69;100810.34;5093619;28;20031;-82
2021/12/26 01:02:15;;;;;;;6.50;3.53;;;;;;;-3.79;90.25;100818.19;5094864;28;20045;-83
2021/12/26 01:04:41;;;;;;;10.70;3.58;;;;;;;-3.71;90.66;100824.41;5093910;28;20043;-82
2021/12/26 01:07:18;;;;;;;7.35;3.45;;;;;;;-3.64;89.75;100812.72;5093536;28;20513;-83
2021/12/26 01:09:47;;;;;;;6.25;3.22;;;;;;;-3.51;89.17;100816.56;5093248;28;20360;-83
2021/12/26 01:12:15;;;;;;;7.53;3.67;;;;;;;-3.47;89.45;100809.03;5104330;28;20019;-83
2021/12/26 01:14:47;;;;;;;9.48;3.55;;;;;;;-3.35;89.78;100823.88;5102088;28;20032;-83
2021/12/26 01:17:16;;;;;;;7.15;4.38;;;;;;;-3.26;89.01;100818.22;5093275;28;20032;-83
2021/12/26 01:19:47;;;;;;;8.13;3.95;;;;;;;-3.22;89.18;100805.63;5093735;28;20024;-83
2021/12/26 01:22:15;;;;;;;6.35;3.63;;;;;;;-3.18;88.04;100801.47;5096888;28;20143;-83
2021/12/26 01:24:40;;;;;;;5.55;3.63;;;;;;;-3.08;88.02;100811.13;5113098;28;20012;-83
2021/12/26 01:27:06;;;;;;;6.82;3.20;;;;;;;-3.02;88.78;100813.03;5108154;28;20415;-83
2021/12/26 01:29:31;;;;;;;7.65;3.85;;;;;;;-2.99;86.41;100813.13;5116461;27;20048;-83
2021/12/26 01:31:57;;;;;;;9.30;3.50;;;;;;;-3.04;87.56;100804.44;5113325;28;20418;-83
2021/12/26 01:34:22;;;;;;;9.68;3.80;;;;;;;-2.95;87.24;100802.19;5093968;28;20473;-83
2021/12/26 01:36:48;;;;;;;5.82;3.40;;;;;;;-2.97;86.58;100801.28;5100754;28;20096;-83
2021/12/26 01:39:14;;;;;;;6.88;3.38;;;;;;;-3.02;86.41;100787.50;5114027;28;20032;-83
2021/12/26 01:41:42;;;;;;;6.45;3.33;;;;;;;-2.95;87.54;100805.59;5111408;28;20467;-83
2021/12/26 01:44:11;;;;;;;7.15;3.65;;;;;;;-2.94;87.92;100806.50;5106199;28;20047;-83
2021/12/26 01:46:37;;;;;;;7.60;4.05;;;;;;;-2.96;87.28;100800.47;5113512;27;20417;-83
2021/12/26 01:49:22;;;;;;;7.38;3.70;;;;;;;-2.92;86.71;100797.19;5095671;28;20035;-83
2021/12/26 01:51:51;;;;;;;8.63;4.40;;;;;;;-2.95;87.26;100795.41;5092108;28;20035;-83
2021/12/26 01:54:31;;;;;;;8.15;4.00;;;;;;;-2.89;86.84;100802.38;5099487;28;20024;-83
2021/12/26 01:56:58;;;;;;;7.00;3.35;;;;;;;-2.88;86.86;100796.44;5093603;28;20105;-83
2021/12/26 01:59:24;;;;;;;6.28;3.70;;;;;;;-2.86;86.65;100802.47;5092580;28;20032;-82
2021/12/26 02:01:49;;;;;;;6.30;3.72;;;;;;;-2.88;86.19;100799.88;5104277;28;20042;-83
2021/12/26 02:04:15;;;;;;;5.95;3.63;;;;;;;-2.81;86.74;100806.03;5093175;28;20112;-83
2021/12/26 02:06:40;;;;;;;7.65;4.00;;;;;;;-2.79;86.02;100798.41;5091876;28;20039;-83
2021/12/26 02:09:07;;;;;;;9.57;3.80;;;;;;;-2.79;86.99;100791.63;5092901;28;20020;-83
2021/12/26 02:11:32;;;;;;;7.20;4.10;;;;;;;-2.79;86.08;100790.75;5093324;28;20016;-83
2021/12/26 02:13:58;;;;;;;7.80;4.28;;;;;;;-2.74;85.95;100795.19;5092553;28;20036;-83
2021/12/26 02:16:23;;;;;;;6.90;3.85;;;;;;;-2.71;85.82;100795.28;5103726;28;20030;-83
2021/12/26 02:18:49;;;;;;;7.28;3.80;;;;;;;-2.72;85.39;100793.53;5107038;28;20391;-83
2021/12/26 02:24:22;;;;;;;7.50;4.25;;;;;;;-2.69;85.53;100788.50;5069301;28;20081;-83
2021/12/26 02:29:31;;;;;;;8.00;4.20;;;;;;;-2.63;85.41;100791.25;5092422;28;20039;-83
2021/12/26 02:31:56;;;;;;;8.30;4.38;;;;;;;-2.61;86.06;100776.84;5093443;28;20107;-83
2021/12/26 02:34:22;;;;;;;8.00;3.88;;;;;;;-2.61;85.15;100779.41;5101090;28;20456;-83
2021/12/26 02:36:47;;;;;;;6.80;3.85;;;;;;;-2.61;86.67;100771.75;5111384;28;20031;-83
2021/12/26 02:39:15;;;;;;;8.25;4.10;;;;;;;-2.57;85.35;100772.69;5093645;28;20027;-83
2021/12/26 02:41:40;;;;;;;6.95;4.15;;;;;;;-2.59;86.10;100767.53;5105261;28;20106;-83
2021/12/26 02:44:06;;;;;;;7.72;4.05;;;;;;;-2.57;85.62;100774.41;5105593;28;20460;-83
2021/12/26 02:46:31;;;;;;;10.10;4.45;;;;;;;-2.60;85.94;100770.91;5091754;28;20031;-83
2021/12/26 02:48:56;;;;;;;7.43;4.00;;;;;;;-2.62;86.70;100767.47;5091926;28;20456;-83
2021/12/26 02:51:21;;;;;;;8.90;4.60;;;;;;;-2.59;84.95;100766.69;5095351;28;20025;-83
2021/12/26 02:53:48;;;;;;;6.38;4.03;;;;;;;-2.58;85.88;100773.53;5104441;28;20407;-84
2021/12/26 02:56:14;;;;;;;9.20;4.90;;;;;;;-2.59;84.86;100769.22;5107432;28;20130;-83
2021/12/26 02:58:40;;;;;;;7.35;4.05;;;;;;;-2.62;85.82;100764.94;5112099;28;20118;-83
2021/12/26 03:01:14;;;;;;;7.35;4.15;;;;;;;-2.60;85.77;100765.81;5110866;28;20028;-83
2021/12/26 03:03:40;;;;;;;6.78;4.20;;;;;;;-2.59;84.66;100766.69;5107190;28;20039;-83
2021/12/26 03:06:15;;;;;;;10.15;4.10;;;;;;;-2.54;84.92;100775.34;5092181;28;20028;-83
2021/12/26 03:08:42;;;;;;;9.85;5.20;;;;;;;-2.59;84.42;100761.56;5091045;28;20031;-83
2021/12/26 03:11:07;;;;;;;8.02;4.90;;;;;;;-2.54;85.02;100769.38;5106989;28;20042;-83
2021/12/26 03:13:33;;;;;;;10.30;4.30;;;;;;;-2.55;85.42;100757.41;5106185;28;20020;-84
2021/12/26 03:15:58;;;;;;;8.68;4.50;;;;;;;-2.57;86.15;100759.09;5111696;28;20023;-83
2021/12/26 03:18:23;;;;;;;7.95;4.72;;;;;;;-2.63;85.71;100759.75;5112035;28;20417;-83
2021/12/26 03:20:51;;;;;;;9.45;4.57;;;;;;;-2.66;86.55;100752.03;5111375;28;20031;-84
2021/12/26 03:23:19;;;;;;;6.53;4.65;;;;;;;-2.78;86.33;100751.66;5109926;28;20030;-83
2021/12/26 03:25:46;;;;;;;8.50;4.60;;;;;;;-2.91;85.83;100752.97;5111853;28;20027;-83
2021/12/26 03:28:11;;;;;;;9.55;4.47;;;;;;;-3.06;86.23;100741.50;5110590;28;20368;-83
2021/12/26 03:30:38;;;;;;;11.00;4.35;;;;;;;-3.16;87.28;100749.72;5112095;28;20046;-83
2021/12/26 03:33:06;;;;;;;7.95;4.50;;;;;;;-3.26;87.68;100747.69;5101542;27;20029;-83
2021/12/26 03:35:32;;;;;;;8.77;4.80;;;;;;;-3.37;87.41;100747.38;5101589;28;20080;-83
2021/12/26 03:37:59;;;;;;;8.65;4.80;;;;;;;-3.42;87.75;100756.53;5118362;27;20023;-83
2021/12/26 03:40:24;;;;;;;6.55;4.50;;;;;;;-3.48;88.20;100746.16;5118442;28;20032;-83
2021/12/26 03:42:53;;;;;;;8.65;4.97;;;;;;;-3.54;87.05;100751.91;5105654;27;20035;-83
2021/12/26 03:45:19;;;;;;;7.60;4.70;;;;;;;-3.60;87.66;100750.84;5098810;28;20027;-83
2021/12/26 03:47:49;;;;;;;9.30;4.13;;;;;;;-3.62;87.98;100755.91;5097859;28;20510;-83
2021/12/26 03:50:15;;;;;;;8.02;4.63;;;;;;;-3.67;88.22;100757.44;5097926;28;20573;-83
2021/12/26 03:52:41;;;;;;;8.35;4.88;;;;;;;-3.70;87.87;100762.44;5111209;28;20020;-83
2021/12/26 03:55:06;;;;;;;9.15;5.22;;;;;;;-3.72;88.08;100760.66;5117793;28;20024;-83
2021/12/26 03:57:31;;;;;;;7.97;4.53;;;;;;;-3.74;88.19;100755.50;5096956;28;20032;-83
2021/12/26 03:59:57;;;;;;;8.50;4.70;;;;;;;-3.83;88.53;100742.47;5098516;28;20020;-83
2021/12/26 04:02:22;;;;;;;9.48;4.35;;;;;;;-3.87;88.55;100735.53;5098835;28;20085;-82
2021/12/26 04:04:47;;;;;;;7.68;4.60;;;;;;;-3.90;88.73;100736.28;5114163;28;20116;-83
2021/12/26 04:07:13;;;;;;;7.72;4.43;;;;;;;-3.86;89.11;100745.78;5097830;28;20116;-83
2021/12/26 04:09:39;;;;;;;8.30;4.88;;;;;;;-3.89;89.25;100739.69;5097756;28;20153;-82
2021/12/26 04:12:05;;;;;;;10.02;5.10;;;;;;;-3.89;89.05;100737.16;5097281;28;20478;-83
2021/12/26 04:14:31;;;;;;;8.20;4.82;;;;;;;-3.96;89.75;100735.22;5114051;28;20060;-83
2021/12/26 04:16:56;;;;;;;9.27;4.68;;;;;;;-3.96;88.89;100748.81;5116741;27;20471;-83
2021/12/26 04:19:21;;;;;;;8.10;4.18;;;;;;;-4.00;89.29;100745.31;5104977;28;20027;-83
2021/12/26 04:21:47;;;;;;;8.90;4.05;;;;;;;-3.98;89.17;100739.41;5098009;28;20482;-83
2021/12/26 04:24:12;;;;;;;8.75;4.65;;;;;;;-4.01;89.00;100748.69;5097988;28;20028;-83
2021/12/26 04:26:39;;;;;;;8.70;4.55;;;;;;;-4.11;88.95;100731.38;5111405;28;20034;-83
2021/12/26 04:29:05;;;;;;;8.35;4.88;;;;;;;-4.11;88.92;100736.44;5118520;27;20023;-83
2021/12/26 04:31:31;;;;;;;7.40;4.35;;;;;;;-4.10;89.80;100745.81;5118292;27;20063;-83
2021/12/26 04:33:56;;;;;;;8.32;4.53;;;;;;;-4.13;89.88;100745.72;5106488;27;20070;-83
2021/12/26 04:36:22;;;;;;;9.98;4.95;;;;;;;-4.13;89.95;100743.16;5112096;28;20467;-83
2021/12/26 04:38:47;;;;;;;8.38;4.45;;;;;;;-4.17;89.63;100740.47;5109358;27;20062;-83
2021/12/26 04:41:13;;;;;;;7.75;4.43;;;;;;;-4.22;89.25;100735.19;5097068;28;20063;-83
2021/12/26 04:43:39;;;;;;;10.20;4.53;;;;;;;-4.21;90.82;100731.00;5093642;28;20424;-83
2021/12/26 04:46:06;;;;;;;7.82;4.05;;;;;;;-4.22;91.40;100740.28;5104362;28;20050;-83
2021/12/26 04:48:33;;;;;;;12.00;4.95;;;;;;;-4.27;90.64;100722.31;5112271;28;20027;-83
2021/12/26 04:50:59;;;;;;;9.38;4.55;;;;;;;-4.26;90.30;100726.59;5114236;28;20028;-83
2021/12/26 04:53:25;;;;;;;7.35;4.07;;;;;;;-4.24;91.16;100731.75;5109755;28;20426;-83
2021/12/26 04:55:50;;;;;;;7.95;5.00;;;;;;;-4.25;91.03;100730.03;5103599;28;20027;-83
2021/12/26 04:58:16;;;;;;;7.13;4.18;;;;;;;-4.27;90.25;100729.09;5114706;28;20023;-83
2021/12/26 05:00:41;;;;;;;10.77;4.72;;;;;;;-4.31;90.27;100727.28;5113724;28;20167;-83
2021/12/26 05:03:08;;;;;;;9.30;5.50;;;;;;;-4.32;90.99;100723.84;5113279;28;20076;-82
2021/12/26 05:05:34;;;;;;;9.60;4.78;;;;;;;-4.33;90.56;100726.34;5108593;28;20024;-83
2021/12/26 05:07:59;;;;;;;8.00;4.50;;;;;;;-4.33;91.72;100727.19;5113775;28;20425;-82
2021/12/26 05:10:27;;;;;;;10.02;4.97;;;;;;;-4.36;91.56;100711.81;5112764;28;20028;-82
2021/12/26 05:12:53;;;;;;;8.98;4.60;;;;;;;-4.32;92.68;100721.28;5111890;28;20031;-82
2021/12/26 05:15:18;;;;;;;8.82;4.70;;;;;;;-4.32;91.06;100716.19;5108798;28;20400;-83
2021/12/26 05:17:44;;;;;;;10.60;5.07;;;;;;;-4.37;92.08;100706.69;5100059;28;20028;-82
2021/12/26 05:20:10;;;;;;;7.80;4.35;;;;;;;-4.36;92.00;100708.41;5114402;28;20110;-82
2021/12/26 05:22:36;;;;;;;8.02;4.70;;;;;;;-4.33;92.09;100716.16;5113073;28;20076;-82
2021/12/26 05:25:06;;;;;;;9.02;4.65;;;;;;;-4.33;91.07;100717.03;5112449;28;20020;-82
2021/12/26 05:27:31;;;;;;;9.15;4.90;;;;;;;-4.34;91.04;100716.97;5113465;28;20047;-83
2021/12/26 05:29:57;;;;;;;7.72;4.63;;;;;;;-4.35;92.13;100715.22;5113446;28;20047;-82
2021/12/26 05:32:22;;;;;;;7.55;4.85;;;;;;;-4.38;90.93;100710.94;5113025;28;20088;-82
2021/12/26 05:34:47;;;;;;;8.82;4.80;;;;;;;-4.40;91.16;100712.53;5113620;28;20029;-82
2021/12/26 05:37:13;;;;;;;8.50;4.78;;;;;;;-4.48;91.46;100694.47;5112198;28;20100;-82
2021/12/26 05:39:42;;;;;;;7.03;4.18;;;;;;;-4.42;90.98;100714.16;5113498;27;20035;-82
2021/12/26 05:42:10;;;;;;;9.90;5.20;;;;;;;-4.43;90.89;100701.38;5104950;28;20027;-83
2021/12/26 05:44:36;;;;;;;12.30;5.40;;;;;;;-4.45;91.41;100701.31;5112856;28;20032;-82
2021/12/26 05:47:01;;;;;;;8.20;4.90;;;;;;;-4.50;91.16;100695.22;5109068;27;20019;-83
2021/12/26 05:49:27;;;;;;;11.88;5.60;;;;;;;-4.50;92.17;100693.53;5111097;28;20027;-82
2021/12/26 05:51:53;;;;;;;9.25;5.93;;;;;;;-4.52;91.82;100702.78;5112031;28;20078;-83
2021/12/26 05:54:18;;;;;;;8.85;4.72;;;;;;;-4.56;91.38;100693.31;5113885;28;20484;-82
2021/12/26 05:56:44;;;;;;;14.35;5.20;;;;;;;-4.58;91.62;100687.31;5098667;28;20032;-82
2021/12/26 05:59:09;;;;;;;8.05;4.82;;;;;;;-4.63;91.70;100680.34;5093189;28;20020;-82
2021/12/26 06:01:34;;;;;;;9.15;4.55;;;;;;;-4.57;91.92;100683.09;5092899;28;20027;-82
2021/12/26 06:04:00;;;;;;;9.10;5.40;;;;;;;-4.59;92.83;100684.72;5109340;28;20039;-82
2021/12/26 06:06:25;;;;;;;8.18;4.95;;;;;;;-4.59;92.26;100677.94;5111939;28;20023;-82
2021/12/26 06:08:50;;;;;;;11.30;5.25;;;;;;;-4.59;92.03;100677.94;5113668;28;20012;-82
2021/12/26 06:11:16;;;;;;;8.27;4.65;;;;;;;-4.59;92.22;100683.03;5112797;27;20045;-82
2021/12/26 06:13:41;;;;;;;9.85;4.82;;;;;;;-4.60;92.33;100677.91;5112814;28;20023;-82
2021/12/26 06:16:06;;;;;;;11.60;4.85;;;;;;;-4.63;92.55;100672.72;5102106;28;20043;-82
2021/12/26 06:18:32;;;;;;;6.88;4.80;;;;;;;-4.66;91.99;100675.13;5106756;28;20353;-82
2021/12/26 06:20:57;;;;;;;10.20;5.43;;;;;;;-4.62;92.72;100676.97;5112135;28;20035;-83
2021/12/26 06:23:22;;;;;;;7.80;4.80;;;;;;;-4.65;92.42;100680.28;5108400;28;20027;-82
2021/12/26 06:25:47;;;;;;;9.55;5.28;;;;;;;-4.62;93.41;100688.00;5109834;28;20042;-82
2021/12/26 06:28:13;;;;;;;10.50;5.60;;;;;;;-4.64;93.62;100681.13;5112972;28;20043;-82
2021/12/26 06:30:38;;;;;;;10.57;5.70;;;;;;;-4.65;93.04;100690.44;5110629;28;20047;-82
2021/12/26 06:33:04;;;;;;;18.05;6.03;;;;;;;-4.65;93.13;100690.44;5111917;28;20022;-82
2021/12/26 06:35:29;;;;;;;10.65;5.63;;;;;;;-4.66;93.05;100692.94;5107061;28;20402;-82
2021/12/26 06:37:54;;;;;;;14.23;5.70;;;;;;;-4.67;92.84;100693.78;5092193;28;20063;-82
2021/12/26 06:40:19;;;;;;;8.40;5.40;;;;;;;-4.70;93.57;100697.06;5091706;28;20059;-82
2021/12/26 06:42:46;;;;;;;10.00;5.43;;;;;;;-4.71;94.41;100695.31;5092142;28;20036;-82
2021/12/26 06:45:15;;;;;;;10.45;5.57;;;;;;;-4.72;92.81;100702.09;5093506;28;20019;-82
2021/12/26 06:47:45;;;;;;;12.10;5.40;;;;;;;-4.71;92.83;100700.41;5090973;28;20543;-82
2021/12/26 06:50:10;;;;;;;8.80;5.55;;;;;;;-4.72;93.03;100702.09;5092298;28;20115;-82
2021/12/26 06:52:35;;;;;;;7.53;5.10;;;;;;;-4.76;92.88;100696.84;5092585;28;20103;-82
2021/12/26 06:55:01;;;;;;;11.70;6.28;;;;;;;-4.76;93.08;100689.22;5100336;28;20043;-82
2021/12/26 06:57:26;;;;;;;10.13;5.68;;;;;;;-4.71;93.32;100696.19;5098302;28;20020;-82
2021/12/26 06:59:51;;;;;;;12.63;5.35;;;;;;;-4.68;93.00;100700.50;5112740;28;20027;-82
2021/12/26 07:02:16;;;;;;;11.88;5.75;;;;;;;-4.67;93.55;100684.47;5092498;28;20020;-82
2021/12/26 07:04:42;;;;;;;11.30;5.53;;;;;;;-4.68;92.98;100685.25;5091582;28;20050;-82
2021/12/26 07:07:07;;;;;;;10.80;5.75;;;;;;;-4.66;93.70;100683.63;5108415;28;20047;-82
2021/12/26 07:09:32;;;;;;;10.25;5.65;;;;;;;-4.64;93.52;100689.66;5094259;28;20031;-82
2021/12/26 07:11:58;;;;;;;12.02;5.72;;;;;;;-4.66;92.68;100683.63;5096608;28;20016;-81
2021/12/26 07:14:23;;;;;;;10.57;5.60;;;;;;;-4.62;93.52;100687.16;5103300;28;20039;-82
2021/12/26 07:16:48;;;;;;;8.88;4.95;;;;;;;-4.72;93.06;100681.72;5111105;28;20553;-82
2021/12/26 07:19:14;;;;;;;11.68;6.10;;;;;;;-4.64;93.00;100688.75;5112349;28;20390;-82
2021/12/26 07:21:40;;;;;;;9.05;5.60;;;;;;;-4.63;93.19;100691.38;5098562;28;20067;-82
2021/12/26 07:24:06;;;;;;;8.63;5.20;;;;;;;-4.65;93.31;100681.94;5092085;28;20040;-82
2021/12/26 07:26:31;;;;;;;11.52;6.15;;;;;;;-4.67;93.10;100678.50;5103588;28;20422;-82
2021/12/26 07:28:56;;;;;;;12.65;6.25;;;;;;;-4.67;93.17;100681.91;5091221;28;20099;-82
2021/12/26 07:31:22;;;;;;;11.10;5.35;;;;;;;-4.69;93.07;100688.59;5098825;28;20031;-82
2021/12/26 07:33:47;;;;;;;10.23;5.53;;;;;;;-4.67;93.35;100686.13;5111678;28;20028;-82
2021/12/26 07:36:12;;;;;;;9.95;5.38;;;;;;;-4.68;93.38;100685.25;5109141;28;20036;-81
2021/12/26 07:38:38;;;;;;;8.57;5.72;;;;;;;-4.68;93.52;100685.25;5111924;28;20028;-81
2021/12/26 07:41:03;;;;;;;11.98;6.60;;;;;;;-4.73;92.72;100676.59;5108259;28;20023;-82
2021/12/26 07:43:28;;;;;;;10.95;6.18;;;;;;;-4.74;92.89;100683.38;5110918;28;20020;-82
2021/12/26 07:45:53;;;;;;;11.30;6.05;;;;;;;-4.74;93.40;100679.97;5112213;28;20024;-82
2021/12/26 07:48:19;;;;;;;11.35;6.15;;;;;;;-4.76;93.77;100682.44;5107306;28;20072;-82
2021/12/26 07:50:44;;;;;;;9.98;5.45;;;;;;;-4.76;93.33;100671.41;5100527;28;20027;-82
2021/12/26 07:53:11;;;;;;;13.02;6.40;;;;;;;-4.75;93.76;100684.16;5112139;28;20106;-82
2021/12/26 07:55:38;;;;;;;11.75;5.82;;;;;;;-4.69;93.56;100680.97;5108630;28;20094;-81
2021/12/26 07:58:03;;;;;;;11.68;5.80;;;;;;;-4.67;93.90;100692.09;5091171;28;20032;-82
2021/12/26 08:00:29;;;;;;;11.45;6.60;;;;;;;-4.64;94.26;100692.19;5090927;28;20028;-82
2021/12/26 08:02:56;;;;;;;10.80;6.18;;;;;;;-4.56;94.50;100700.94;5091606;28;20028;-82
2021/12/26 08:05:21;;;;;;;15.77;6.57;;;;;;;-4.52;94.41;100700.25;5090802;28;20040;-81
2021/12/26 08:07:47;;;;;;;10.07;6.05;;;;;;;-4.44;94.33;100699.66;5090892;28;20028;-82
2021/12/26 08:10:12;;;;;;;13.07;6.97;;;;;;;-4.38;94.76;100694.75;5108572;28;20076;-81
2021/12/26 08:12:38;;;;;;;12.32;7.03;;;;;;;-4.35;93.95;100683.03;5110939;28;20028;-82
2021/12/26 08:15:04;;;;;;;11.63;6.75;;;;;;;-4.17;94.09;100699.72;5093280;28;20028;-82
2021/12/26 08:17:30;;;;;;;9.70;6.45;;;;;;;-4.08;93.76;100694.97;5090394;28;20032;-82
2021/12/26 08:19:56;;;;;;;12.93;6.90;;;;;;;-4.10;93.09;100682.16;5111611;28;20040;-82
2021/12/26 08:22:22;;;;;;;14.55;7.40;;;;;;;-3.85;93.64;100701.66;5113046;28;20110;-82
2021/12/26 08:24:47;;;;;;;12.10;6.85;;;;;;;-3.78;93.15;100695.09;5108417;28;20122;-82
2021/12/26 08:27:15;;;;;;;13.60;7.03;;;;;;;-3.70;93.34;100698.72;5115332;28;20475;-82
2021/12/26 08:29:41;;;;;;;12.15;7.07;;;;;;;-3.60;92.62;100690.59;5111899;28;20035;-82
2021/12/26 08:32:11;;;;;;;12.95;7.30;;;;;;;-3.53;92.69;100696.75;5114345;28;20034;-82
2021/12/26 08:34:36;;;;;;;14.60;6.63;;;;;;;-3.40;92.60;100698.84;5102115;28;20080;-82
2021/12/26 08:37:03;;;;;;;13.45;7.18;;;;;;;-3.31;91.98;100693.13;5113382;28;20031;-82
2021/12/26 08:39:35;;;;;;;11.30;6.45;;;;;;;-3.21;91.99;100690.03;5113351;28;20447;-82
2021/12/26 08:42:01;;;;;;;10.63;6.45;;;;;;;-3.14;91.78;100674.13;5115320;27;20031;-82
2021/12/26 08:44:26;;;;;;;14.68;6.70;;;;;;;-3.04;92.22;100682.91;5107549;28;20482;-82
2021/12/26 08:46:53;;;;;;;13.38;6.75;;;;;;;-2.97;92.34;100668.66;5094013;28;20036;-82
2021/12/26 08:49:19;;;;;;;12.40;7.72;;;;;;;-2.88;91.60;100685.09;5105080;28;20035;-82
2021/12/26 08:51:46;;;;;;;12.38;6.35;;;;;;;-2.85;91.03;100661.31;5113644;28;20122;-82
2021/12/26 08:54:12;;;;;;;12.48;6.90;;;;;;;-2.74;91.39;100672.72;5108738;27;20399;-82
2021/12/26 08:56:38;;;;;;;14.15;6.68;;;;;;;-2.74;89.98;100674.41;5103342;28;20027;-82
2021/12/26 08:59:04;;;;;;;14.55;6.32;;;;;;;-2.69;90.93;100675.38;5114486;28;20032;-82
2021/12/26 09:01:29;;;;;;;12.77;6.78;;;;;;;-2.66;89.74;100665.25;5110045;28;20036;-82
2021/12/26 09:03:55;;;;;;;11.98;6.65;;;;;;;-2.55;90.55;100673.19;5113887;28;20233;-82
2021/12/26 09:06:21;;;;;;;9.98;6.25;;;;;;;-2.52;90.14;100678.38;5114255;28;20068;-82
2021/12/26 09:08:47;;;;;;;13.85;6.72;;;;;;;-2.43;90.30;100666.72;5111811;28;20107;-82
2021/12/26 09:11:12;;;;;;;13.80;6.78;;;;;;;-2.40;89.84;100650.63;5114313;28;20119;-82
2021/12/26 09:13:37;;;;;;;11.93;6.72;;;;;;;-2.33;89.08;100660.16;5096746;28;20097;-82
2021/12/26 09:16:03;;;;;;;13.15;6.70;;;;;;;-2.31;89.24;100666.19;5112630;28;20034;-82
2021/12/26 09:18:28;;;;;;;11.82;6.80;;;;;;;-2.23;89.37;100664.69;5114022;28;20081;-82
2021/12/26 09:20:54;;;;;;;11.45;6.43;;;;;;;-2.14;88.33;100679.38;5112687;28;20020;-83
2021/12/26 09:23:19;;;;;;;11.85;6.78;;;;;;;-2.14;89.27;100671.72;5101767;28;20024;-83
2021/12/26 09:25:44;;;;;;;11.68;6.55;;;;;;;-2.11;88.72;100664.13;5114254;28;20035;-83
2021/12/26 09:28:10;;;;;;;11.52;6.53;;;;;;;-2.04;89.06;100667.72;5109345;28;20050;-83
2021/12/26 09:30:36;;;;;;;14.70;7.18;;;;;;;-1.99;88.78;100681.47;5104016;28;20513;-82
2021/12/26 09:33:03;;;;;;;12.82;7.00;;;;;;;-1.97;88.97;100679.81;5106071;28;20044;-83
2021/12/26 09:35:29;;;;;;;14.45;6.95;;;;;;;-1.98;89.02;100667.88;5092664;28;20380;-82
2021/12/26 09:37:55;;;;;;;13.13;7.07;;;;;;;-1.88;89.81;100674.94;5095994;28;20026;-82
2021/12/26 09:40:21;;;;;;;11.05;6.82;;;;;;;-1.84;89.23;100675.84;5095198;28;20024;-82
2021/12/26 09:42:46;;;;;;;12.85;7.32;;;;;;;-1.81;89.14;100679.34;5092454;28;20028;-83
2021/12/26 09:45:14;;;;;;;13.48;7.53;;;;;;;-1.73;89.25;100680.41;5094224;28;20032;-82
2021/12/26 09:47:40;;;;;;;13.73;6.90;;;;;;;-1.71;88.35;100686.41;5111920;28;20371;-83
2021/12/26 09:50:08;;;;;;;12.73;7.60;;;;;;;-1.66;88.54;100684.84;5108245;28;20093;-82
2021/12/26 09:52:34;;;;;;;12.90;7.35;;;;;;;-1.59;89.02;100690.09;5101611;28;20084;-83
2021/12/26 09:54:59;;;;;;;13.07;7.85;;;;;;;-1.62;88.82;100662.75;5109981;28;20027;-82
2021/12/26 09:57:25;;;;;;;14.20;8.23;;;;;;;-1.51;88.15;100670.66;5101636;28;20028;-84
2021/12/26 09:59:51;;;;;;;15.50;7.75;;;;;;;-1.46;88.70;100663.97;5097936;28;20038;-84
2021/12/26 10:02:18;;;;;;;13.43;7.68;;;;;;;-1.35;88.71;100665.06;5104964;28;20032;-83
2021/12/26 10:04:45;;;;;;;16.33;7.57;;;;;;;-1.35;88.24;100652.28;5092166;28;20073;-83
2021/12/26 10:07:14;;;;;;;15.10;7.60;;;;;;;-1.27;89.06;100655.88;5093817;28;20426;-83
2021/12/26 10:09:42;;;;;;;13.48;7.45;;;;;;;-1.21;87.74;100655.13;5096134;28;20027;-83
2021/12/26 10:12:09;;;;;;;13.63;8.27;;;;;;;-1.19;88.41;100644.09;5097783;28;20047;-83
2021/12/26 10:14:37;;;;;;;12.73;8.00;;;;;;;-1.11;88.49;100651.97;5094680;28;20020;-83
2021/12/26 10:17:14;;;;;;;16.08;8.63;;;;;;;-1.07;88.41;100642.66;5101651;28;20024;-83
2021/12/26 10:19:43;;;;;;;14.13;7.65;;;;;;;-1.06;88.45;100623.91;5111903;28;20035;-84
2021/12/26 10:22:11;;;;;;;14.98;8.07;;;;;;;-1.01;87.90;100629.97;5110094;28;20036;-82
2021/12/26 10:24:38;;;;;;;13.68;7.78;;;;;;;-0.96;88.08;100636.03;5107933;28;20027;-83
2021/12/26 10:27:17;;;;;;;15.30;7.72;;;;;;;-0.92;88.55;100632.69;5112622;28;20444;-84
2021/12/26 10:29:49;;;;;;;13.18;7.80;;;;;;;-0.93;88.74;100628.44;5111850;28;20086;-84
2021/12/26 10:32:19;;;;;;;21.00;8.73;;;;;;;-0.87;87.63;100630.25;5098781;28;20039;-83
2021/12/26 10:34:54;;;;;;;18.00;8.27;;;;;;;-0.84;88.34;100627.75;5092481;28;20046;-84
2021/12/26 10:37:29;;;;;;;15.23;8.65;;;;;;;-0.78;88.24;100620.19;5100281;28;20031;-84
2021/12/26 10:39:58;;;;;;;17.42;9.13;;;;;;;-0.75;88.60;100616.00;5104570;28;20020;-84
2021/12/26 10:42:29;;;;;;;15.13;8.35;;;;;;;-0.75;88.59;100613.44;5092182;28;20468;-85
2021/12/26 10:45:01;;;;;;;18.85;9.52;;;;;;;-0.72;88.43;100616.06;5092733;28;20028;-84
2021/12/26 10:47:28;;;;;;;15.10;9.45;;;;;;;-0.68;88.89;100613.56;5095172;28;20480;-84
2021/12/26 10:50:15;;;;;;;15.35;8.85;;;;;;;-0.66;88.06;100605.03;5097337;28;20484;-84
2021/12/26 10:52:49;;;;;;;15.98;8.90;;;;;;;-0.57;88.52;100606.91;5107708;28;20029;-85
2021/12/26 10:55:18;;;;;;;13.75;8.70;;;;;;;-0.50;88.84;100603.63;5100368;28;20114;-84
2021/12/26 10:57:50;;;;;;;17.42;9.95;;;;;;;-0.42;89.19;100606.34;5096057;28;20445;-85
2021/12/26 11:00:37;;;;;;;14.63;8.60;;;;;;;-0.37;88.10;100597.88;5091221;27;20096;-84
2021/12/26 11:03:09;;;;;;;15.40;9.18;;;;;;;-0.35;88.33;100596.22;5093971;28;20052;-84
2021/12/26 11:05:40;;;;;;;18.48;8.75;;;;;;;-0.32;88.20;100593.72;5094372;28;20055;-83
2021/12/26 11:08:11;;;;;;;15.80;9.13;;;;;;;-0.34;88.69;100581.69;5094303;28;20036;-84
2021/12/26 11:10:36;;;;;;;16.00;9.27;;;;;;;-0.25;88.29;100589.53;5100014;28;20020;-84
2021/12/26 11:13:08;;;;;;;15.55;8.57;;;;;;;-0.22;88.34;100576.78;5108781;28;20035;-85
2021/12/26 11:15:36;;;;;;;16.92;9.32;;;;;;;-0.20;88.15;100581.91;5109300;28;20080;-84
2021/12/26 11:18:13;;;;;;;16.42;9.73;;;;;;;-0.12;88.14;100588.91;5112565;28;20103;-84
2021/12/26 11:20:49;;;;;;;17.58;9.15;;;;;;;-0.06;88.52;100588.16;5094753;28;20060;-84
2021/12/26 11:23:21;;;;;;;16.52;9.05;;;;;;;-0.03;87.92;100580.50;5093969;28;20080;-85
2021/12/26 11:25:53;;;;;;;17.58;9.50;;;;;;;-0.04;87.73;100586.44;5108074;28;20031;-84